sensor_id;sensor_type;location;lat;lon;timestamp;P1;durP1;ratioP1;P2;durP2;ratioP2
71080;SDS011;58740;50.672;18.690;2022-12-29T00:00:09;9.30;;;2.10;;
71080;SDS011;58740;50.672;18.690;2022-12-29T00:02:58;7.90;;;3.00;;
71080;SDS011;58740;50.672;18.690;2022-12-29T00:05:26;7.40;;;3.10;;
71080;SDS011;58740;50.672;18.690;2022-12-29T00:07:54;6.50;;;2.90;;
71080;SDS011;58740;50.672;18.690;2022-12-29T00:10:21;11.10;;;3.40;;
71080;SDS011;58740;50.672;18.690;2022-12-29T00:12:49;8.20;;;3.00;;
71080;SDS011;58740;50.672;18.690;2022-12-29T00:15:36;6.50;;;2.80;;
71080;SDS011;58740;50.672;18.690;2022-12-29T00:18:07;10.40;;;3.10;;
71080;SDS011;58740;50.672;18.690;2022-12-29T00:20:36;8.50;;;2.80;;
71080;SDS011;58740;50.672;18.690;2022-12-29T00:23:24;6.20;;;2.10;;
71080;SDS011;58740;50.672;18.690;2022-12-29T00:26:24;7.10;;;2.80;;
71080;SDS011;58740;50.672;18.690;2022-12-29T00:29:10;6.90;;;2.40;;
71080;SDS011;58740;50.672;18.690;2022-12-29T00:32:10;7.30;;;3.10;;
71080;SDS011;58740;50.672;18.690;2022-12-29T00:34:56;7.80;;;2.90;;
71080;SDS011;58740;50.672;18.690;2022-12-29T00:37:42;6.80;;;2.30;;
71080;SDS011;58740;50.672;18.690;2022-12-29T00:40:33;9.60;;;2.70;;
71080;SDS011;58740;50.672;18.690;2022-12-29T00:43:20;6.10;;;2.30;;
71080;SDS011;58740;50.672;18.690;2022-12-29T00:46:06;8.20;;;2.50;;
71080;SDS011;58740;50.672;18.690;2022-12-29T00:48:34;5.80;;;2.40;;
71080;SDS011;58740;50.672;18.690;2022-12-29T00:51:20;8.50;;;3.20;;
71080;SDS011;58740;50.672;18.690;2022-12-29T00:53:48;7.70;;;2.60;;
71080;SDS011;58740;50.672;18.690;2022-12-29T00:56:16;8.30;;;3.40;;
71080;SDS011;58740;50.672;18.690;2022-12-29T00:58:44;5.30;;;2.40;;
71080;SDS011;58740;50.672;18.690;2022-12-29T01:01:12;9.90;;;3.90;;
71080;SDS011;58740;50.672;18.690;2022-12-29T01:03:40;8.40;;;3.00;;
71080;SDS011;58740;50.672;18.690;2022-12-29T01:06:09;5.90;;;2.20;;
71080;SDS011;58740;50.672;18.690;2022-12-29T01:08:38;6.60;;;2.70;;
71080;SDS011;58740;50.672;18.690;2022-12-29T01:11:09;7.90;;;3.00;;
71080;SDS011;58740;50.672;18.690;2022-12-29T01:13:39;5.00;;;2.10;;
71080;SDS011;58740;50.672;18.690;2022-12-29T01:16:08;7.10;;;3.10;;
71080;SDS011;58740;50.672;18.690;2022-12-29T01:18:36;7.70;;;2.50;;
71080;SDS011;58740;50.672;18.690;2022-12-29T01:21:05;7.00;;;2.30;;
71080;SDS011;58740;50.672;18.690;2022-12-29T01:23:34;8.80;;;3.20;;
71080;SDS011;58740;50.672;18.690;2022-12-29T01:26:09;9.70;;;3.10;;
71080;SDS011;58740;50.672;18.690;2022-12-29T01:28:38;6.90;;;2.50;;
71080;SDS011;58740;50.672;18.690;2022-12-29T01:31:08;8.50;;;3.50;;
71080;SDS011;58740;50.672;18.690;2022-12-29T01:33:38;5.90;;;2.50;;
71080;SDS011;58740;50.672;18.690;2022-12-29T01:36:11;4.80;;;1.70;;
71080;SDS011;58740;50.672;18.690;2022-12-29T01:38:41;6.70;;;1.80;;
71080;SDS011;58740;50.672;18.690;2022-12-29T01:41:12;5.70;;;1.80;;
71080;SDS011;58740;50.672;18.690;2022-12-29T01:43:54;6.00;;;2.80;;
71080;SDS011;58740;50.672;18.690;2022-12-29T01:46:34;4.30;;;1.60;;
71080;SDS011;58740;50.672;18.690;2022-12-29T01:49:14;7.60;;;3.00;;
71080;SDS011;58740;50.672;18.690;2022-12-29T01:52:02;5.70;;;1.90;;
71080;SDS011;58740;50.672;18.690;2022-12-29T01:54:40;7.20;;;2.90;;
71080;SDS011;58740;50.672;18.690;2022-12-29T01:57:18;8.50;;;2.90;;
71080;SDS011;58740;50.672;18.690;2022-12-29T01:59:59;4.90;;;2.10;;
71080;SDS011;58740;50.672;18.690;2022-12-29T02:02:33;8.00;;;2.80;;
71080;SDS011;58740;50.672;18.690;2022-12-29T02:05:10;5.50;;;2.50;;
71080;SDS011;58740;50.672;18.690;2022-12-29T02:07:42;5.60;;;1.90;;
71080;SDS011;58740;50.672;18.690;2022-12-29T02:10:10;7.50;;;2.40;;
71080;SDS011;58740;50.672;18.690;2022-12-29T02:12:38;6.00;;;2.30;;
71080;SDS011;58740;50.672;18.690;2022-12-29T02:15:06;7.40;;;2.30;;
71080;SDS011;58740;50.672;18.690;2022-12-29T02:18:09;3.00;;;1.30;;
71080;SDS011;58740;50.672;18.690;2022-12-29T02:24:57;5.90;;;3.00;;
71080;SDS011;58740;50.672;18.690;2022-12-29T02:30:35;6.80;;;2.60;;
71080;SDS011;58740;50.672;18.690;2022-12-29T02:33:25;7.20;;;2.90;;
71080;SDS011;58740;50.672;18.690;2022-12-29T02:36:25;6.80;;;2.40;;
71080;SDS011;58740;50.672;18.690;2022-12-29T02:39:02;7.10;;;2.60;;
71080;SDS011;58740;50.672;18.690;2022-12-29T02:41:49;4.50;;;1.90;;
71080;SDS011;58740;50.672;18.690;2022-12-29T02:47:37;6.60;;;2.40;;
71080;SDS011;58740;50.672;18.690;2022-12-29T02:50:52;9.30;;;2.60;;
71080;SDS011;58740;50.672;18.690;2022-12-29T02:53:26;6.10;;;2.20;;
71080;SDS011;58740;50.672;18.690;2022-12-29T02:56:14;6.50;;;2.50;;
71080;SDS011;58740;50.672;18.690;2022-12-29T02:58:42;6.10;;;2.00;;
71080;SDS011;58740;50.672;18.690;2022-12-29T03:01:24;6.30;;;2.30;;
71080;SDS011;58740;50.672;18.690;2022-12-29T03:04:32;7.00;;;3.00;;
71080;SDS011;58740;50.672;18.690;2022-12-29T03:07:19;7.60;;;2.30;;
71080;SDS011;58740;50.672;18.690;2022-12-29T03:13:25;4.90;;;1.90;;
71080;SDS011;58740;50.672;18.690;2022-12-29T03:16:32;7.50;;;2.90;;
71080;SDS011;58740;50.672;18.690;2022-12-29T03:19:31;5.90;;;2.60;;
71080;SDS011;58740;50.672;18.690;2022-12-29T03:22:07;6.20;;;2.50;;
71080;SDS011;58740;50.672;18.690;2022-12-29T03:25:05;5.40;;;1.90;;
71080;SDS011;58740;50.672;18.690;2022-12-29T03:28:01;6.10;;;2.90;;
71080;SDS011;58740;50.672;18.690;2022-12-29T03:30:41;4.70;;;1.70;;
71080;SDS011;58740;50.672;18.690;2022-12-29T03:33:14;4.80;;;2.00;;
71080;SDS011;58740;50.672;18.690;2022-12-29T03:35:48;7.10;;;2.60;;
71080;SDS011;58740;50.672;18.690;2022-12-29T03:41:28;7.60;;;3.00;;
71080;SDS011;58740;50.672;18.690;2022-12-29T03:43:59;7.00;;;2.90;;
71080;SDS011;58740;50.672;18.690;2022-12-29T03:46:26;7.40;;;3.00;;
71080;SDS011;58740;50.672;18.690;2022-12-29T03:48:54;7.00;;;2.90;;
71080;SDS011;58740;50.672;18.690;2022-12-29T03:51:22;7.80;;;3.60;;
71080;SDS011;58740;50.672;18.690;2022-12-29T03:53:50;6.00;;;2.60;;
71080;SDS011;58740;50.672;18.690;2022-12-29T03:56:18;9.80;;;2.90;;
71080;SDS011;58740;50.672;18.690;2022-12-29T03:58:45;7.30;;;3.00;;
71080;SDS011;58740;50.672;18.690;2022-12-29T04:01:13;8.60;;;3.40;;
71080;SDS011;58740;50.672;18.690;2022-12-29T04:03:41;7.50;;;2.90;;
71080;SDS011;58740;50.672;18.690;2022-12-29T04:06:09;7.20;;;3.10;;
71080;SDS011;58740;50.672;18.690;2022-12-29T04:08:37;6.90;;;3.00;;
71080;SDS011;58740;50.672;18.690;2022-12-29T04:11:04;7.60;;;3.10;;
71080;SDS011;58740;50.672;18.690;2022-12-29T04:13:33;6.50;;;2.40;;
71080;SDS011;58740;50.672;18.690;2022-12-29T04:16:01;6.60;;;2.70;;
71080;SDS011;58740;50.672;18.690;2022-12-29T04:18:29;8.10;;;3.80;;
71080;SDS011;58740;50.672;18.690;2022-12-29T04:20:57;7.30;;;2.50;;
71080;SDS011;58740;50.672;18.690;2022-12-29T04:23:30;8.60;;;3.80;;
71080;SDS011;58740;50.672;18.690;2022-12-29T04:26:00;7.70;;;3.10;;
71080;SDS011;58740;50.672;18.690;2022-12-29T04:28:29;8.50;;;3.30;;
71080;SDS011;58740;50.672;18.690;2022-12-29T04:30:58;6.80;;;3.00;;
71080;SDS011;58740;50.672;18.690;2022-12-29T04:33:26;8.40;;;3.20;;
71080;SDS011;58740;50.672;18.690;2022-12-29T04:35:55;7.10;;;2.70;;
71080;SDS011;58740;50.672;18.690;2022-12-29T04:38:23;5.70;;;2.10;;
71080;SDS011;58740;50.672;18.690;2022-12-29T04:40:51;8.10;;;2.40;;
71080;SDS011;58740;50.672;18.690;2022-12-29T04:43:19;8.00;;;3.20;;
71080;SDS011;58740;50.672;18.690;2022-12-29T04:45:49;7.90;;;3.00;;
71080;SDS011;58740;50.672;18.690;2022-12-29T04:48:16;8.20;;;3.50;;
71080;SDS011;58740;50.672;18.690;2022-12-29T04:50:47;8.30;;;2.90;;
71080;SDS011;58740;50.672;18.690;2022-12-29T04:53:17;7.80;;;2.90;;
71080;SDS011;58740;50.672;18.690;2022-12-29T04:55:49;7.70;;;3.10;;
71080;SDS011;58740;50.672;18.690;2022-12-29T04:58:19;7.30;;;3.00;;
71080;SDS011;58740;50.672;18.690;2022-12-29T05:00:51;10.30;;;3.90;;
71080;SDS011;58740;50.672;18.690;2022-12-29T05:03:19;8.00;;;3.80;;
71080;SDS011;58740;50.672;18.690;2022-12-29T05:05:47;6.40;;;3.30;;
71080;SDS011;58740;50.672;18.690;2022-12-29T05:08:15;8.80;;;3.80;;
71080;SDS011;58740;50.672;18.690;2022-12-29T05:10:45;8.90;;;3.10;;
71080;SDS011;58740;50.672;18.690;2022-12-29T05:13:13;7.50;;;3.00;;
71080;SDS011;58740;50.672;18.690;2022-12-29T05:15:46;4.50;;;1.60;;
71080;SDS011;58740;50.672;18.690;2022-12-29T05:18:17;8.90;;;3.60;;
71080;SDS011;58740;50.672;18.690;2022-12-29T05:20:46;7.70;;;3.40;;
71080;SDS011;58740;50.672;18.690;2022-12-29T05:23:15;9.60;;;4.10;;
71080;SDS011;58740;50.672;18.690;2022-12-29T05:25:45;10.30;;;4.30;;
71080;SDS011;58740;50.672;18.690;2022-12-29T05:28:13;15.30;;;7.20;;
71080;SDS011;58740;50.672;18.690;2022-12-29T05:30:41;11.70;;;4.70;;
71080;SDS011;58740;50.672;18.690;2022-12-29T05:33:09;10.30;;;3.70;;
71080;SDS011;58740;50.672;18.690;2022-12-29T05:35:39;11.60;;;5.10;;
71080;SDS011;58740;50.672;18.690;2022-12-29T05:38:06;9.80;;;3.90;;
71080;SDS011;58740;50.672;18.690;2022-12-29T05:40:34;8.60;;;3.40;;
71080;SDS011;58740;50.672;18.690;2022-12-29T05:43:02;8.90;;;3.50;;
71080;SDS011;58740;50.672;18.690;2022-12-29T05:45:30;10.40;;;4.10;;
71080;SDS011;58740;50.672;18.690;2022-12-29T05:47:58;4.20;;;2.00;;
71080;SDS011;58740;50.672;18.690;2022-12-29T05:50:25;5.80;;;2.70;;
71080;SDS011;58740;50.672;18.690;2022-12-29T05:52:54;8.80;;;3.50;;
71080;SDS011;58740;50.672;18.690;2022-12-29T05:55:22;9.00;;;3.70;;
71080;SDS011;58740;50.672;18.690;2022-12-29T05:57:49;9.30;;;4.20;;
71080;SDS011;58740;50.672;18.690;2022-12-29T06:00:17;10.20;;;4.30;;
71080;SDS011;58740;50.672;18.690;2022-12-29T06:02:45;6.30;;;2.30;;
71080;SDS011;58740;50.672;18.690;2022-12-29T06:05:14;7.00;;;3.20;;
71080;SDS011;58740;50.672;18.690;2022-12-29T06:07:41;5.80;;;2.50;;
71080;SDS011;58740;50.672;18.690;2022-12-29T06:10:09;6.10;;;2.70;;
71080;SDS011;58740;50.672;18.690;2022-12-29T06:12:37;7.60;;;3.10;;
71080;SDS011;58740;50.672;18.690;2022-12-29T06:15:05;5.40;;;1.90;;
71080;SDS011;58740;50.672;18.690;2022-12-29T06:17:34;8.60;;;3.20;;
71080;SDS011;58740;50.672;18.690;2022-12-29T06:20:02;8.80;;;3.30;;
71080;SDS011;58740;50.672;18.690;2022-12-29T06:22:30;8.20;;;3.40;;
71080;SDS011;58740;50.672;18.690;2022-12-29T06:24:58;9.10;;;3.50;;
71080;SDS011;58740;50.672;18.690;2022-12-29T06:27:31;9.10;;;3.60;;
71080;SDS011;58740;50.672;18.690;2022-12-29T06:30:00;9.50;;;3.70;;
71080;SDS011;58740;50.672;18.690;2022-12-29T06:32:28;8.00;;;3.90;;
71080;SDS011;58740;50.672;18.690;2022-12-29T06:34:56;6.30;;;3.10;;
71080;SDS011;58740;50.672;18.690;2022-12-29T06:37:24;7.90;;;4.00;;
71080;SDS011;58740;50.672;18.690;2022-12-29T06:39:52;7.30;;;3.40;;
71080;SDS011;58740;50.672;18.690;2022-12-29T06:42:20;10.40;;;3.10;;
71080;SDS011;58740;50.672;18.690;2022-12-29T06:44:48;5.20;;;2.30;;
71080;SDS011;58740;50.672;18.690;2022-12-29T06:47:15;7.20;;;3.10;;
71080;SDS011;58740;50.672;18.690;2022-12-29T06:49:44;9.10;;;4.10;;
71080;SDS011;58740;50.672;18.690;2022-12-29T06:52:12;7.30;;;3.50;;
71080;SDS011;58740;50.672;18.690;2022-12-29T06:54:40;9.40;;;3.90;;
71080;SDS011;58740;50.672;18.690;2022-12-29T06:57:08;8.90;;;3.60;;
71080;SDS011;58740;50.672;18.690;2022-12-29T06:59:36;7.50;;;3.50;;
71080;SDS011;58740;50.672;18.690;2022-12-29T07:02:04;6.10;;;2.10;;
71080;SDS011;58740;50.672;18.690;2022-12-29T07:04:32;5.10;;;2.10;;
71080;SDS011;58740;50.672;18.690;2022-12-29T07:07:00;5.90;;;2.50;;
71080;SDS011;58740;50.672;18.690;2022-12-29T07:09:28;6.90;;;3.00;;
71080;SDS011;58740;50.672;18.690;2022-12-29T07:11:55;6.60;;;2.60;;
71080;SDS011;58740;50.672;18.690;2022-12-29T07:14:23;5.50;;;2.60;;
71080;SDS011;58740;50.672;18.690;2022-12-29T07:16:51;7.70;;;3.70;;
71080;SDS011;58740;50.672;18.690;2022-12-29T07:19:19;8.10;;;3.60;;
71080;SDS011;58740;50.672;18.690;2022-12-29T07:21:47;7.00;;;2.10;;
71080;SDS011;58740;50.672;18.690;2022-12-29T07:24:15;7.20;;;3.10;;
71080;SDS011;58740;50.672;18.690;2022-12-29T07:26:43;10.10;;;3.20;;
71080;SDS011;58740;50.672;18.690;2022-12-29T07:29:11;9.80;;;4.00;;
71080;SDS011;58740;50.672;18.690;2022-12-29T07:31:38;9.10;;;3.40;;
71080;SDS011;58740;50.672;18.690;2022-12-29T07:34:08;10.80;;;4.20;;
71080;SDS011;58740;50.672;18.690;2022-12-29T07:36:36;7.80;;;2.80;;
71080;SDS011;58740;50.672;18.690;2022-12-29T07:39:04;12.30;;;5.70;;
71080;SDS011;58740;50.672;18.690;2022-12-29T07:41:32;14.20;;;5.40;;
71080;SDS011;58740;50.672;18.690;2022-12-29T07:44:02;14.60;;;6.40;;
71080;SDS011;58740;50.672;18.690;2022-12-29T07:46:30;8.80;;;4.30;;
71080;SDS011;58740;50.672;18.690;2022-12-29T07:49:18;10.80;;;4.50;;
71080;SDS011;58740;50.672;18.690;2022-12-29T07:51:46;9.60;;;3.60;;
71080;SDS011;58740;50.672;18.690;2022-12-29T07:54:13;7.20;;;3.20;;
71080;SDS011;58740;50.672;18.690;2022-12-29T07:56:41;8.00;;;3.60;;
71080;SDS011;58740;50.672;18.690;2022-12-29T07:59:09;9.20;;;3.80;;
71080;SDS011;58740;50.672;18.690;2022-12-29T08:01:38;8.10;;;3.70;;
71080;SDS011;58740;50.672;18.690;2022-12-29T08:04:06;7.20;;;3.30;;
71080;SDS011;58740;50.672;18.690;2022-12-29T08:06:34;11.00;;;4.10;;
71080;SDS011;58740;50.672;18.690;2022-12-29T08:09:02;8.50;;;3.70;;
71080;SDS011;58740;50.672;18.690;2022-12-29T08:11:44;9.00;;;3.60;;
71080;SDS011;58740;50.672;18.690;2022-12-29T08:14:12;9.30;;;4.00;;
71080;SDS011;58740;50.672;18.690;2022-12-29T08:16:40;10.60;;;4.70;;
71080;SDS011;58740;50.672;18.690;2022-12-29T08:19:10;13.60;;;5.80;;
71080;SDS011;58740;50.672;18.690;2022-12-29T08:21:39;9.20;;;4.00;;
71080;SDS011;58740;50.672;18.690;2022-12-29T08:24:08;8.40;;;3.50;;
71080;SDS011;58740;50.672;18.690;2022-12-29T08:26:36;6.40;;;3.50;;
71080;SDS011;58740;50.672;18.690;2022-12-29T08:29:04;7.00;;;3.30;;
71080;SDS011;58740;50.672;18.690;2022-12-29T08:31:32;8.60;;;3.70;;
71080;SDS011;58740;50.672;18.690;2022-12-29T08:34:00;8.40;;;3.30;;
71080;SDS011;58740;50.672;18.690;2022-12-29T08:36:29;7.70;;;3.30;;
71080;SDS011;58740;50.672;18.690;2022-12-29T08:38:58;8.80;;;3.30;;
71080;SDS011;58740;50.672;18.690;2022-12-29T08:41:26;10.20;;;4.20;;
71080;SDS011;58740;50.672;18.690;2022-12-29T08:43:53;10.30;;;4.40;;
71080;SDS011;58740;50.672;18.690;2022-12-29T08:46:21;9.50;;;4.30;;
71080;SDS011;58740;50.672;18.690;2022-12-29T08:48:49;11.70;;;4.70;;
71080;SDS011;58740;50.672;18.690;2022-12-29T08:51:17;8.80;;;3.40;;
71080;SDS011;58740;50.672;18.690;2022-12-29T08:53:51;6.50;;;2.30;;
71080;SDS011;58740;50.672;18.690;2022-12-29T08:56:20;11.80;;;5.00;;
71080;SDS011;58740;50.672;18.690;2022-12-29T08:58:48;8.20;;;3.80;;
71080;SDS011;58740;50.672;18.690;2022-12-29T09:01:16;9.10;;;3.70;;
71080;SDS011;58740;50.672;18.690;2022-12-29T09:03:44;7.90;;;3.30;;
71080;SDS011;58740;50.672;18.690;2022-12-29T09:06:32;7.30;;;3.10;;
71080;SDS011;58740;50.672;18.690;2022-12-29T09:09:06;7.80;;;3.50;;
71080;SDS011;58740;50.672;18.690;2022-12-29T09:11:35;11.20;;;4.80;;
71080;SDS011;58740;50.672;18.690;2022-12-29T09:14:03;10.00;;;3.00;;
71080;SDS011;58740;50.672;18.690;2022-12-29T09:16:32;10.30;;;4.70;;
71080;SDS011;58740;50.672;18.690;2022-12-29T09:19:01;8.80;;;3.90;;
71080;SDS011;58740;50.672;18.690;2022-12-29T09:21:29;9.40;;;3.20;;
71080;SDS011;58740;50.672;18.690;2022-12-29T09:23:57;11.40;;;4.70;;
71080;SDS011;58740;50.672;18.690;2022-12-29T09:26:25;6.50;;;3.20;;
71080;SDS011;58740;50.672;18.690;2022-12-29T09:28:53;8.30;;;3.70;;
71080;SDS011;58740;50.672;18.690;2022-12-29T09:31:21;8.60;;;3.50;;
71080;SDS011;58740;50.672;18.690;2022-12-29T09:33:49;7.00;;;2.90;;
71080;SDS011;58740;50.672;18.690;2022-12-29T09:36:17;8.90;;;4.20;;
71080;SDS011;58740;50.672;18.690;2022-12-29T09:38:45;12.20;;;5.90;;
71080;SDS011;58740;50.672;18.690;2022-12-29T09:41:22;12.70;;;5.20;;
71080;SDS011;58740;50.672;18.690;2022-12-29T09:44:02;11.90;;;4.50;;
71080;SDS011;58740;50.672;18.690;2022-12-29T09:46:44;11.50;;;4.60;;
71080;SDS011;58740;50.672;18.690;2022-12-29T09:52:15;8.40;;;3.90;;
71080;SDS011;58740;50.672;18.690;2022-12-29T09:54:55;8.30;;;3.50;;
71080;SDS011;58740;50.672;18.690;2022-12-29T09:57:37;7.60;;;3.40;;
71080;SDS011;58740;50.672;18.690;2022-12-29T10:00:33;9.70;;;4.00;;
71080;SDS011;58740;50.672;18.690;2022-12-29T10:03:20;10.30;;;4.30;;
71080;SDS011;58740;50.672;18.690;2022-12-29T10:06:15;8.70;;;3.70;;
71080;SDS011;58740;50.672;18.690;2022-12-29T10:15:31;8.80;;;4.40;;
71080;SDS011;58740;50.672;18.690;2022-12-29T10:23:53;11.50;;;5.90;;
71080;SDS011;58740;50.672;18.690;2022-12-29T10:26:27;7.00;;;3.80;;
71080;SDS011;58740;50.672;18.690;2022-12-29T10:29:02;9.30;;;3.70;;
71080;SDS011;58740;50.672;18.690;2022-12-29T10:31:38;9.60;;;4.10;;
71080;SDS011;58740;50.672;18.690;2022-12-29T10:34:29;12.20;;;4.90;;
71080;SDS011;58740;50.672;18.690;2022-12-29T10:37:29;17.00;;;6.70;;
71080;SDS011;58740;50.672;18.690;2022-12-29T10:40:11;11.00;;;4.20;;
71080;SDS011;58740;50.672;18.690;2022-12-29T10:42:54;15.40;;;5.80;;
71080;SDS011;58740;50.672;18.690;2022-12-29T10:45:28;13.50;;;5.40;;
71080;SDS011;58740;50.672;18.690;2022-12-29T10:48:09;14.00;;;4.70;;
71080;SDS011;58740;50.672;18.690;2022-12-29T10:50:41;10.50;;;4.90;;
71080;SDS011;58740;50.672;18.690;2022-12-29T10:53:17;12.30;;;5.40;;
71080;SDS011;58740;50.672;18.690;2022-12-29T10:55:50;14.60;;;5.90;;
71080;SDS011;58740;50.672;18.690;2022-12-29T10:58:19;21.70;;;9.40;;
71080;SDS011;58740;50.672;18.690;2022-12-29T11:00:51;14.40;;;5.90;;
71080;SDS011;58740;50.672;18.690;2022-12-29T11:03:36;12.40;;;5.10;;
71080;SDS011;58740;50.672;18.690;2022-12-29T11:06:24;12.20;;;4.90;;
71080;SDS011;58740;50.672;18.690;2022-12-29T11:08:59;13.90;;;5.20;;
71080;SDS011;58740;50.672;18.690;2022-12-29T11:11:43;14.80;;;6.00;;
71080;SDS011;58740;50.672;18.690;2022-12-29T11:14:40;10.40;;;4.60;;
71080;SDS011;58740;50.672;18.690;2022-12-29T11:17:14;15.90;;;6.70;;
71080;SDS011;58740;50.672;18.690;2022-12-29T11:19:47;12.20;;;5.00;;
71080;SDS011;58740;50.672;18.690;2022-12-29T11:22:27;19.00;;;6.50;;
71080;SDS011;58740;50.672;18.690;2022-12-29T11:25:06;13.70;;;5.60;;
71080;SDS011;58740;50.672;18.690;2022-12-29T11:28:01;14.00;;;5.30;;
71080;SDS011;58740;50.672;18.690;2022-12-29T11:30:41;10.20;;;4.00;;
71080;SDS011;58740;50.672;18.690;2022-12-29T11:33:10;12.20;;;4.50;;
71080;SDS011;58740;50.672;18.690;2022-12-29T11:35:41;11.10;;;5.20;;
71080;SDS011;58740;50.672;18.690;2022-12-29T11:38:24;10.70;;;4.40;;
71080;SDS011;58740;50.672;18.690;2022-12-29T11:40:58;10.70;;;4.40;;
71080;SDS011;58740;50.672;18.690;2022-12-29T11:43:38;10.50;;;4.80;;
71080;SDS011;58740;50.672;18.690;2022-12-29T11:46:30;9.80;;;4.50;;
71080;SDS011;58740;50.672;18.690;2022-12-29T11:49:01;9.10;;;4.70;;
71080;SDS011;58740;50.672;18.690;2022-12-29T11:51:43;14.40;;;6.20;;
71080;SDS011;58740;50.672;18.690;2022-12-29T11:54:21;11.90;;;5.50;;
71080;SDS011;58740;50.672;18.690;2022-12-29T11:56:53;12.30;;;4.90;;
71080;SDS011;58740;50.672;18.690;2022-12-29T12:02:00;18.00;;;6.70;;
71080;SDS011;58740;50.672;18.690;2022-12-29T12:04:38;13.80;;;6.00;;
71080;SDS011;58740;50.672;18.690;2022-12-29T12:07:43;13.20;;;5.50;;
71080;SDS011;58740;50.672;18.690;2022-12-29T12:10:19;11.90;;;4.90;;
71080;SDS011;58740;50.672;18.690;2022-12-29T12:13:06;10.30;;;4.80;;
71080;SDS011;58740;50.672;18.690;2022-12-29T12:15:50;8.70;;;4.60;;
71080;SDS011;58740;50.672;18.690;2022-12-29T12:18:32;10.50;;;4.70;;
71080;SDS011;58740;50.672;18.690;2022-12-29T12:21:30;10.10;;;5.20;;
71080;SDS011;58740;50.672;18.690;2022-12-29T12:24:31;17.10;;;6.20;;
71080;SDS011;58740;50.672;18.690;2022-12-29T12:27:16;12.60;;;5.30;;
71080;SDS011;58740;50.672;18.690;2022-12-29T12:29:57;8.60;;;4.20;;
71080;SDS011;58740;50.672;18.690;2022-12-29T12:35:42;10.50;;;4.50;;
71080;SDS011;58740;50.672;18.690;2022-12-29T12:39:11;8.10;;;3.70;;
71080;SDS011;58740;50.672;18.690;2022-12-29T12:44:59;12.80;;;5.80;;
71080;SDS011;58740;50.672;18.690;2022-12-29T12:48:00;11.00;;;5.70;;
71080;SDS011;58740;50.672;18.690;2022-12-29T12:50:54;11.80;;;5.50;;
71080;SDS011;58740;50.672;18.690;2022-12-29T12:54:13;10.10;;;4.20;;
71080;SDS011;58740;50.672;18.690;2022-12-29T12:59:56;8.50;;;4.00;;
71080;SDS011;58740;50.672;18.690;2022-12-29T13:08:32;10.10;;;4.30;;
71080;SDS011;58740;50.672;18.690;2022-12-29T13:14:19;9.90;;;4.40;;
71080;SDS011;58740;50.672;18.690;2022-12-29T13:19:52;12.50;;;5.00;;
71080;SDS011;58740;50.672;18.690;2022-12-29T13:22:39;12.50;;;5.10;;
71080;SDS011;58740;50.672;18.690;2022-12-29T13:25:26;11.60;;;4.50;;
71080;SDS011;58740;50.672;18.690;2022-12-29T13:33:36;9.10;;;4.00;;
71080;SDS011;58740;50.672;18.690;2022-12-29T13:36:21;11.10;;;4.30;;
71080;SDS011;58740;50.672;18.690;2022-12-29T13:39:12;9.80;;;4.40;;
71080;SDS011;58740;50.672;18.690;2022-12-29T13:41:51;11.50;;;4.70;;
71080;SDS011;58740;50.672;18.690;2022-12-29T13:44:28;10.40;;;4.40;;
71080;SDS011;58740;50.672;18.690;2022-12-29T13:47:29;11.50;;;4.70;;
71080;SDS011;58740;50.672;18.690;2022-12-29T13:50:04;11.20;;;5.50;;
71080;SDS011;58740;50.672;18.690;2022-12-29T13:52:51;10.70;;;4.70;;
71080;SDS011;58740;50.672;18.690;2022-12-29T13:55:29;9.50;;;4.60;;
71080;SDS011;58740;50.672;18.690;2022-12-29T13:58:15;9.00;;;4.80;;
71080;SDS011;58740;50.672;18.690;2022-12-29T14:03:44;9.30;;;4.80;;
71080;SDS011;58740;50.672;18.690;2022-12-29T14:06:28;9.80;;;4.70;;
71080;SDS011;58740;50.672;18.690;2022-12-29T14:09:03;11.70;;;4.70;;
71080;SDS011;58740;50.672;18.690;2022-12-29T14:11:35;14.10;;;5.50;;
71080;SDS011;58740;50.672;18.690;2022-12-29T14:14:21;14.40;;;5.40;;
71080;SDS011;58740;50.672;18.690;2022-12-29T14:16:52;15.80;;;5.20;;
71080;SDS011;58740;50.672;18.690;2022-12-29T14:19:30;9.40;;;4.30;;
71080;SDS011;58740;50.672;18.690;2022-12-29T14:22:09;13.10;;;4.90;;
71080;SDS011;58740;50.672;18.690;2022-12-29T14:24:44;10.00;;;4.30;;
71080;SDS011;58740;50.672;18.690;2022-12-29T14:29:44;13.30;;;6.10;;
71080;SDS011;58740;50.672;18.690;2022-12-29T14:35:42;8.70;;;3.90;;
71080;SDS011;58740;50.672;18.690;2022-12-29T14:38:37;9.90;;;5.20;;
71080;SDS011;58740;50.672;18.690;2022-12-29T14:41:23;16.80;;;6.60;;
71080;SDS011;58740;50.672;18.690;2022-12-29T14:47:04;13.80;;;6.00;;
71080;SDS011;58740;50.672;18.690;2022-12-29T14:49:43;12.60;;;5.50;;
71080;SDS011;58740;50.672;18.690;2022-12-29T14:52:19;16.10;;;6.70;;
71080;SDS011;58740;50.672;18.690;2022-12-29T14:55:28;17.40;;;6.20;;
71080;SDS011;58740;50.672;18.690;2022-12-29T14:58:06;11.90;;;5.70;;
71080;SDS011;58740;50.672;18.690;2022-12-29T15:00:42;12.00;;;5.70;;
71080;SDS011;58740;50.672;18.690;2022-12-29T15:06:21;12.20;;;5.80;;
71080;SDS011;58740;50.672;18.690;2022-12-29T15:09:24;12.10;;;6.40;;
71080;SDS011;58740;50.672;18.690;2022-12-29T15:11:59;12.40;;;5.60;;
71080;SDS011;58740;50.672;18.690;2022-12-29T15:14:37;11.80;;;5.90;;
71080;SDS011;58740;50.672;18.690;2022-12-29T15:17:23;13.40;;;6.80;;
71080;SDS011;58740;50.672;18.690;2022-12-29T15:20:38;16.60;;;7.30;;
71080;SDS011;58740;50.672;18.690;2022-12-29T15:23:11;15.00;;;6.80;;
71080;SDS011;58740;50.672;18.690;2022-12-29T15:28:40;14.70;;;6.60;;
71080;SDS011;58740;50.672;18.690;2022-12-29T15:31:21;16.00;;;7.10;;
71080;SDS011;58740;50.672;18.690;2022-12-29T15:34:11;17.80;;;7.90;;
71080;SDS011;58740;50.672;18.690;2022-12-29T15:36:40;43.00;;;12.60;;
71080;SDS011;58740;50.672;18.690;2022-12-29T15:39:29;16.20;;;8.10;;
71080;SDS011;58740;50.672;18.690;2022-12-29T15:42:16;15.60;;;8.40;;
71080;SDS011;58740;50.672;18.690;2022-12-29T15:44:54;16.40;;;7.50;;
71080;SDS011;58740;50.672;18.690;2022-12-29T15:47:37;14.90;;;7.00;;
71080;SDS011;58740;50.672;18.690;2022-12-29T15:52:54;14.40;;;7.30;;
71080;SDS011;58740;50.672;18.690;2022-12-29T15:55:37;14.30;;;6.70;;
71080;SDS011;58740;50.672;18.690;2022-12-29T15:58:20;10.40;;;5.30;;
71080;SDS011;58740;50.672;18.690;2022-12-29T16:00:56;15.20;;;7.20;;
71080;SDS011;58740;50.672;18.690;2022-12-29T16:03:27;11.70;;;6.00;;
71080;SDS011;58740;50.672;18.690;2022-12-29T16:06:25;13.50;;;6.40;;
71080;SDS011;58740;50.672;18.690;2022-12-29T16:09:17;14.80;;;5.70;;
71080;SDS011;58740;50.672;18.690;2022-12-29T16:12:05;16.30;;;6.70;;
71080;SDS011;58740;50.672;18.690;2022-12-29T16:14:44;13.60;;;5.70;;
71080;SDS011;58740;50.672;18.690;2022-12-29T16:17:21;13.10;;;6.20;;
71080;SDS011;58740;50.672;18.690;2022-12-29T16:19:57;12.80;;;5.90;;
71080;SDS011;58740;50.672;18.690;2022-12-29T16:22:34;13.40;;;6.50;;
71080;SDS011;58740;50.672;18.690;2022-12-29T16:25:16;12.10;;;5.70;;
71080;SDS011;58740;50.672;18.690;2022-12-29T16:27:50;16.20;;;7.10;;
71080;SDS011;58740;50.672;18.690;2022-12-29T16:30:25;18.30;;;7.50;;
71080;SDS011;58740;50.672;18.690;2022-12-29T16:33:03;13.10;;;6.70;;
71080;SDS011;58740;50.672;18.690;2022-12-29T16:35:45;16.70;;;6.10;;
71080;SDS011;58740;50.672;18.690;2022-12-29T16:40:53;12.40;;;6.30;;
71080;SDS011;58740;50.672;18.690;2022-12-29T16:48:23;15.50;;;7.40;;